<?xml version="1.0" encoding="UTF-8" ?><gpx version="1.0" creator="GPSLogger - http://gpslogger.mendhak.com/" xmlns:xsi="http://www.w3.org/2001/XMLSchema-instance" xmlns="http://www.topografix.com/GPX/1/0" xsi:schemaLocation="http://www.topografix.com/GPX/1/0 http://www.topografix.com/GPX/1/0/gpx.xsd"><time>2015-09-27T14:07:09Z</time><bounds /><trk><trkseg><trkpt lat="47.10457244" lon="9.35917854"><ele>609.0999755859375</ele><speed>0.0</speed><hdop>9.4</hdop><src>gps</src><sat>8</sat><time>2015-09-27T14:07:09Z</time></trkpt>
<trkpt lat="47.10473761" lon="9.3592187"><ele>669.7000122070313</ele><speed>0.0</speed><hdop>19.4</hdop><src>gps</src><sat>8</sat><time>2015-09-27T14:09:54Z</time></trkpt>
<trkpt lat="47.1043912" lon="9.35917768"><ele>674.9000244140625</ele><course>256.3</course><speed>0.5</speed><hdop>9.8</hdop><src>gps</src><sat>9</sat><time>2015-09-27T14:12:23Z</time></trkpt>
<trkpt lat="47.10430709" lon="9.35924804"><ele>624.0999755859375</ele><speed>0.0</speed><hdop>10.8</hdop><src>gps</src><sat>8</sat><time>2015-09-27T14:13:56Z</time></trkpt>
<trkpt lat="47.10428132" lon="9.35897471"><ele>633.2999877929688</ele><course>270.8</course><speed>1.5</speed><hdop>7.8</hdop><src>gps</src><sat>9</sat><time>2015-09-27T14:15:03Z</time></trkpt>
<trkpt lat="47.10404539" lon="9.35833819"><ele>648.0</ele><speed>0.0</speed><hdop>2.4</hdop><src>gps</src><sat>9</sat><time>2015-09-27T14:16:05Z</time></trkpt>
<trkpt lat="47.10414427" lon="9.35824891"><ele>605.0999755859375</ele><speed>0.0</speed><hdop>9.8</hdop><src>gps</src><sat>9</sat><time>2015-09-27T14:17:15Z</time></trkpt>
<trkpt lat="47.10421641" lon="9.35822094"><ele>603.7000122070313</ele><course>229.7</course><speed>0.5</speed><hdop>12.4</hdop><src>gps</src><sat>10</sat><time>2015-09-27T14:18:37Z</time></trkpt>
<trkpt lat="47.10448891" lon="9.35757453"><ele>706.2999877929688</ele><speed>0.0</speed><hdop>9.6</hdop><src>gps</src><sat>9</sat><time>2015-09-27T14:19:46Z</time></trkpt>
<trkpt lat="47.10450198" lon="9.35742282"><ele>690.0999755859375</ele><speed>0.0</speed><hdop>10.8</hdop><src>gps</src><sat>9</sat><time>2015-09-27T14:21:07Z</time></trkpt>
<trkpt lat="47.10442247" lon="9.35716925"><ele>681.0999755859375</ele><speed>0.0</speed><hdop>10.0</hdop><src>gps</src><sat>11</sat><time>2015-09-27T14:23:15Z</time></trkpt>
<trkpt lat="47.10448674" lon="9.35655402"><ele>698.5</ele><speed>0.0</speed><hdop>8.8</hdop><src>gps</src><sat>10</sat><time>2015-09-27T14:24:53Z</time></trkpt>
<trkpt lat="47.10450587" lon="9.35632206"><ele>689.7999877929688</ele><speed>0.0</speed><hdop>10.2</hdop><src>gps</src><sat>10</sat><time>2015-09-27T14:26:22Z</time></trkpt>
<trkpt lat="47.10487517" lon="9.35317503"><ele>569.2999877929688</ele><speed>0.0</speed><hdop>9.4</hdop><src>gps</src><sat>9</sat><time>2015-09-27T14:30:33Z</time></trkpt>
<trkpt lat="47.1053014" lon="9.35264928"><ele>635.9000244140625</ele><course>350.8</course><speed>1.4142135</speed><hdop>12.4</hdop><src>gps</src><sat>10</sat><time>2015-09-27T14:35:53Z</time></trkpt>
<trkpt lat="47.10715546" lon="9.34726941"><ele>458.1000061035156</ele><course>326.4</course><speed>1.0</speed><hdop>10.0</hdop><src>gps</src><sat>8</sat><time>2015-09-27T14:54:50Z</time></trkpt>
<trkpt lat="47.10731302" lon="9.34684973"><ele>489.6000061035156</ele><course>350.9</course><speed>1.0</speed><hdop>13.8</hdop><src>gps</src><sat>8</sat><time>2015-09-27T14:56:14Z</time></trkpt>
</trkseg></trk></gpx>